createdAt,value
2023-01-07T00:01:39.170Z,101281.19
2023-01-07T00:04:11.027Z,101277.88
2023-01-07T00:06:42.599Z,101279.06
2023-01-07T00:09:14.469Z,101269.66
2023-01-07T00:11:46.041Z,101279.63
2023-01-07T00:14:17.986Z,101272.84
2023-01-07T00:16:50.057Z,101277.66
2023-01-07T00:19:22.351Z,101279.00
2023-01-07T00:21:55.212Z,101277.53
2023-01-07T00:24:26.673Z,101268.13
2023-01-07T00:26:58.616Z,101270.97
2023-01-07T00:29:30.091Z,101271.31
2023-01-07T00:32:01.938Z,101270.50
2023-01-07T00:34:33.482Z,101270.38
2023-01-07T00:37:24.083Z,101270.09
2023-01-07T00:39:55.644Z,101271.09
2023-01-07T00:42:46.339Z,101279.22
2023-01-07T00:45:17.839Z,101273.09
2023-01-07T00:47:49.697Z,101266.81
2023-01-07T00:50:21.272Z,101270.16
2023-01-07T00:52:53.067Z,101269.50
2023-01-07T00:55:24.613Z,101271.84
2023-01-07T00:57:56.530Z,101274.84
2023-01-07T01:00:28.124Z,101264.09
2023-01-07T01:03:00.145Z,101267.03
2023-01-07T01:05:31.636Z,101256.09
2023-01-07T01:08:03.128Z,101272.13
2023-01-07T01:10:34.619Z,101273.44
2023-01-07T01:13:06.437Z,101268.69
2023-01-07T01:15:38.044Z,101273.16
2023-01-07T01:18:09.935Z,101276.94
2023-01-07T01:20:41.414Z,101269.00
2023-01-07T01:23:13.325Z,101265.19
2023-01-07T01:25:45.170Z,101268.16
2023-01-07T01:28:16.669Z,101274.59
2023-01-07T01:30:48.438Z,101272.63
2023-01-07T01:33:19.929Z,101273.09
2023-01-07T01:35:51.743Z,101276.56
2023-01-07T01:38:23.301Z,101272.09
2023-01-07T01:40:55.225Z,101270.09
2023-01-07T01:43:26.731Z,101266.09
2023-01-07T01:45:58.726Z,101262.72
2023-01-07T01:48:30.215Z,101258.06
2023-01-07T01:51:02.160Z,101258.25
2023-01-07T01:53:33.648Z,101251.19
2023-01-07T01:56:05.467Z,101247.91
2023-01-07T01:58:36.954Z,101246.81
2023-01-07T02:01:09.131Z,101248.63
2023-01-07T02:03:40.685Z,101250.63
2023-01-07T02:06:12.491Z,101252.44
2023-01-07T02:08:44.007Z,101250.28
2023-01-07T02:11:15.963Z,101241.50
2023-01-07T02:13:47.509Z,101243.50
2023-01-07T02:16:19.715Z,101246.97
2023-01-07T02:18:51.289Z,101236.38
2023-01-07T02:21:23.164Z,101237.38
2023-01-07T02:23:54.665Z,101237.72
2023-01-07T02:26:26.514Z,101232.91
2023-01-07T02:28:59.419Z,101238.03
2023-01-07T02:31:31.340Z,101229.75
2023-01-07T02:34:02.861Z,101229.56
2023-01-07T02:36:34.752Z,101225.91
2023-01-07T02:39:06.280Z,101219.78
2023-01-07T02:41:38.049Z,101220.34
2023-01-07T02:44:09.549Z,101214.41
2023-01-07T02:46:41.360Z,101214.41
2023-01-07T02:49:12.843Z,101217.22
2023-01-07T02:51:44.698Z,101212.06
2023-01-07T02:54:16.188Z,101220.84
2023-01-07T02:56:48.013Z,101223.34
2023-01-07T02:59:19.510Z,101221.50
2023-01-07T03:01:51.462Z,101220.16
2023-01-07T03:04:23.131Z,101220.69
2023-01-07T03:06:55.055Z,101216.22
2023-01-07T03:09:26.556Z,101211.56
2023-01-07T03:11:58.380Z,101209.91
2023-01-07T03:14:29.885Z,101215.22
2023-01-07T03:17:01.723Z,101211.94
2023-01-07T03:19:33.240Z,101211.56
2023-01-07T03:22:05.017Z,101215.03
2023-01-07T03:24:36.536Z,101215.03
2023-01-07T03:27:08.393Z,101220.16
2023-01-07T03:29:39.930Z,101213.69
2023-01-07T03:32:11.756Z,101217.16
2023-01-07T03:34:43.288Z,101216.78
2023-01-07T03:37:15.168Z,101223.25
2023-01-07T03:39:46.662Z,101219.44
2023-01-07T03:42:57.129Z,101218.63
2023-01-07T03:45:28.714Z,101212.97
2023-01-07T03:48:00.726Z,101210.31
2023-01-07T03:50:32.248Z,101209.50
2023-01-07T03:53:04.155Z,101206.84
2023-01-07T03:55:35.677Z,101200.56
2023-01-07T03:58:07.452Z,101196.53
2023-01-07T04:00:38.944Z,101186.59
2023-01-07T04:03:11.890Z,101190.69
2023-01-07T04:05:43.426Z,101194.34
2023-01-07T04:08:15.255Z,101184.59
2023-01-07T04:10:47.356Z,101183.13
2023-01-07T04:13:18.904Z,101172.78
2023-01-07T04:15:50.739Z,101168.50
2023-01-07T04:18:22.240Z,100913.56
2023-01-07T04:20:53.767Z,101162.56
2023-01-07T04:23:25.265Z,101165.03
2023-01-07T04:25:57.218Z,101157.28
2023-01-07T04:28:28.699Z,101160.75
2023-01-07T04:31:00.609Z,101163.28
2023-01-07T04:33:32.155Z,101174.16
2023-01-07T04:36:04.084Z,101169.50
2023-01-07T04:38:35.577Z,101157.91
2023-01-07T04:41:07.479Z,101152.44
2023-01-07T04:43:38.979Z,101153.25
2023-01-07T04:46:11.030Z,101146.41
2023-01-07T04:48:42.711Z,101149.06
2023-01-07T04:51:14.671Z,101149.53
2023-01-07T04:53:46.692Z,101149.34
2023-01-07T04:56:18.217Z,101151.63
2023-01-07T04:58:49.781Z,101140.50
2023-01-07T05:01:21.441Z,101145.44
2023-01-07T05:03:53.445Z,101142.41
2023-01-07T05:06:24.937Z,101146.38
2023-01-07T05:08:56.827Z,101147.47
2023-01-07T05:11:28.383Z,101152.69
2023-01-07T05:14:00.678Z,101150.84
2023-01-07T05:16:32.294Z,101149.47
2023-01-07T05:19:04.571Z,101140.78
2023-01-07T05:21:36.098Z,101146.53
2023-01-07T05:24:08.884Z,101147.00
2023-01-07T05:26:40.413Z,101148.94
2023-01-07T05:29:11.950Z,101143.81
2023-01-07T05:31:43.717Z,101142.25
2023-01-07T05:34:15.545Z,101143.09
2023-01-07T05:36:47.033Z,101133.31
2023-01-07T05:39:18.867Z,101130.28
2023-01-07T05:41:50.367Z,101132.94
2023-01-07T05:44:22.235Z,101129.66
2023-01-07T05:46:53.746Z,101126.25
2023-01-07T05:49:25.701Z,101128.09
2023-01-07T05:51:57.182Z,101129.72
2023-01-07T05:54:28.978Z,101141.16
2023-01-07T05:57:00.472Z,101136.47
2023-01-07T05:59:35.158Z,101137.50
2023-01-07T06:02:06.688Z,101131.00
2023-01-07T06:04:38.603Z,101134.19
2023-01-07T06:07:10.121Z,101134.66
2023-01-07T06:09:41.997Z,101129.34
2023-01-07T06:12:13.482Z,101139.50
2023-01-07T06:14:45.487Z,101145.63
2023-01-07T06:17:17.045Z,101141.78
2023-01-07T06:19:49.009Z,101133.66
2023-01-07T06:22:20.510Z,101145.97
2023-01-07T06:24:52.357Z,101136.56
2023-01-07T06:27:23.957Z,101139.28
2023-01-07T06:29:55.731Z,101140.28
2023-01-07T06:32:27.284Z,101143.75
2023-01-07T06:34:59.227Z,101148.25
2023-01-07T06:37:30.739Z,101151.91
2023-01-07T06:40:02.310Z,101153.91
2023-01-07T06:42:33.818Z,101152.28
2023-01-07T06:45:05.653Z,101154.63
2023-01-07T06:47:37.169Z,101154.56
2023-01-07T06:50:09.055Z,101145.53
2023-01-07T06:52:40.556Z,101145.78
2023-01-07T06:55:12.556Z,101140.03
2023-01-07T06:57:44.037Z,101149.38
2023-01-07T07:00:15.992Z,101144.25
2023-01-07T07:02:47.649Z,101142.59
2023-01-07T07:05:19.554Z,101136.47
2023-01-07T07:07:51.041Z,101140.31
2023-01-07T07:10:22.536Z,101144.63
2023-01-07T07:12:54.085Z,101146.91
2023-01-07T07:15:25.877Z,101148.72
2023-01-07T07:17:57.368Z,101145.88
2023-01-07T07:20:29.186Z,101151.38
2023-01-07T07:23:00.711Z,101153.09
2023-01-07T07:25:32.672Z,101148.16
2023-01-07T07:28:04.219Z,101149.63
2023-01-07T07:30:51.109Z,101159.66
2023-01-07T07:33:22.665Z,101155.63
2023-01-07T07:35:55.635Z,101156.31
2023-01-07T07:38:27.231Z,101160.75
2023-01-07T07:40:59.077Z,101158.09
2023-01-07T07:43:30.618Z,101165.09
2023-01-07T07:46:02.533Z,101166.34
2023-01-07T07:48:34.035Z,101168.81
2023-01-07T07:51:05.714Z,101166.34
2023-01-07T07:53:37.383Z,101171.66
2023-01-07T07:56:09.308Z,101164.97
2023-01-07T07:58:42.925Z,101160.28
2023-01-07T08:01:14.788Z,101159.03
2023-01-07T08:03:46.493Z,101167.06
2023-01-07T08:06:18.220Z,101154.25
2023-01-07T08:08:49.705Z,101160.75
2023-01-07T08:11:21.498Z,101165.47
2023-01-07T08:13:53.151Z,101159.09
2023-01-07T08:16:25.065Z,101157.91
2023-01-07T08:18:56.958Z,101156.91
2023-01-07T08:21:28.480Z,101152.03
2023-01-07T08:24:00.109Z,101156.41
2023-01-07T08:26:31.635Z,101150.28
2023-01-07T08:29:03.202Z,101153.03
2023-01-07T08:31:34.722Z,101147.75
2023-01-07T08:34:06.360Z,101150.06
2023-01-07T08:36:37.876Z,101154.28
2023-01-07T08:39:10.053Z,101143.91
2023-01-07T08:41:41.540Z,101155.03
2023-01-07T08:44:13.355Z,101147.91
2023-01-07T08:46:44.893Z,101149.31
2023-01-07T08:49:16.781Z,101147.13
2023-01-07T08:51:48.277Z,101149.44
2023-01-07T08:54:20.028Z,101138.63
2023-01-07T08:56:51.665Z,101144.78
2023-01-07T08:59:23.568Z,101142.50
2023-01-07T09:01:55.193Z,101143.81
2023-01-07T09:04:27.262Z,101143.75
2023-01-07T09:06:58.801Z,101141.16
2023-01-07T09:09:30.801Z,101142.84
2023-01-07T09:12:02.302Z,101146.03
2023-01-07T09:14:34.495Z,101146.13
2023-01-07T09:17:05.999Z,101142.44
2023-01-07T09:19:37.884Z,101140.28
2023-01-07T09:22:09.385Z,101140.44
2023-01-07T09:24:41.327Z,101142.91
2023-01-07T09:27:12.844Z,101140.44
2023-01-07T09:29:44.848Z,101129.91
2023-01-07T09:32:16.344Z,101136.38
2023-01-07T09:34:48.125Z,101138.13
2023-01-07T09:37:19.931Z,101141.84
2023-01-07T09:39:51.585Z,101138.88
2023-01-07T09:42:23.450Z,101135.59
2023-01-07T09:44:55.038Z,101143.41
2023-01-07T09:47:26.744Z,101143.72
2023-01-07T09:49:58.278Z,101144.13
2023-01-07T09:52:30.095Z,101147.59
2023-01-07T09:55:01.784Z,101143.22
2023-01-07T09:57:33.683Z,101141.78
2023-01-07T10:00:05.462Z,101136.69
2023-01-07T10:02:37.593Z,101139.81
2023-01-07T10:05:09.099Z,101134.28
2023-01-07T10:07:41.435Z,101138.38
2023-01-07T10:10:12.925Z,101123.00
2023-01-07T10:12:44.780Z,101122.97
2023-01-07T10:15:16.315Z,101122.13
2023-01-07T10:17:48.258Z,101114.38
2023-01-07T10:20:19.771Z,101122.22
2023-01-07T10:22:51.611Z,101120.75
2023-01-07T10:25:23.140Z,101113.19
2023-01-07T10:27:54.977Z,101104.00
2023-01-07T10:30:26.631Z,101099.09
2023-01-07T10:32:58.460Z,101097.84
2023-01-07T10:35:30.321Z,101093.53
2023-01-07T10:38:02.169Z,101086.78
2023-01-07T10:40:33.630Z,101087.81
2023-01-07T10:43:05.538Z,101082.69
2023-01-07T10:45:37.055Z,101078.41
2023-01-07T10:48:08.934Z,101080.47
2023-01-07T10:50:40.415Z,101068.56
2023-01-07T10:53:12.335Z,101073.88
2023-01-07T10:55:43.856Z,101075.13
2023-01-07T10:58:15.924Z,101070.84
2023-01-07T11:00:47.798Z,101065.09
2023-01-07T11:03:19.680Z,101066.94
2023-01-07T11:05:51.686Z,101060.38
2023-01-07T11:08:23.191Z,101060.13
2023-01-07T11:10:55.006Z,101055.59
2023-01-07T11:13:26.510Z,101051.09
2023-01-07T11:15:58.588Z,101041.72
2023-01-07T11:18:30.108Z,101035.72
2023-01-07T11:21:01.926Z,101034.25
2023-01-07T11:23:33.524Z,101033.19
2023-01-07T11:26:05.598Z,101027.72
2023-01-07T11:28:37.074Z,101027.72
2023-01-07T11:31:08.851Z,101018.50
2023-01-07T11:34:03.897Z,101024.66
2023-01-07T11:36:32.267Z,101020.78
2023-01-07T11:39:03.744Z,101019.75
2023-01-07T11:41:35.238Z,101026.50
2023-01-07T11:44:06.771Z,101014.44
2023-01-07T11:46:38.626Z,101020.75
2023-01-07T11:49:10.169Z,101016.44
2023-01-07T11:51:42.026Z,101012.31
2023-01-07T11:54:13.511Z,101014.53
2023-01-07T11:56:45.364Z,101003.19
2023-01-07T11:59:17.909Z,101006.53
2023-01-07T12:01:49.747Z,101005.56
2023-01-07T12:04:21.350Z,100996.13
2023-01-07T12:06:53.110Z,100998.78
2023-01-07T12:09:24.735Z,100996.31
2023-01-07T12:11:56.589Z,100986.13
2023-01-07T12:14:28.135Z,100994.16
2023-01-07T12:16:59.932Z,100990.84
2023-01-07T12:19:32.075Z,100994.28
2023-01-07T12:22:03.925Z,100984.47
2023-01-07T12:24:35.586Z,100981.97
2023-01-07T12:27:07.419Z,100979.91
2023-01-07T12:29:39.243Z,100977.72
2023-01-07T12:32:11.107Z,100971.91
2023-01-07T12:34:42.599Z,100969.66
2023-01-07T12:37:14.469Z,100971.28
2023-01-07T12:39:46.052Z,100966.75
2023-01-07T12:42:18.040Z,100959.03
2023-01-07T12:44:49.601Z,100963.31
2023-01-07T12:47:32.010Z,100961.38
2023-01-07T12:50:04.826Z,100958.16
2023-01-07T12:52:37.300Z,100958.53
2023-01-07T12:55:08.885Z,100954.88
2023-01-07T12:57:40.698Z,100947.72
2023-01-07T13:00:12.651Z,100949.91
2023-01-07T13:02:48.172Z,100949.50
2023-01-07T13:05:20.168Z,100940.97
2023-01-07T13:07:51.824Z,100940.34
2023-01-07T13:10:23.992Z,100934.81
2023-01-07T13:12:55.599Z,100932.69
2023-01-07T13:15:27.619Z,100932.06
2023-01-07T13:17:59.104Z,100928.88
2023-01-07T13:20:30.881Z,100923.34
2023-01-07T13:23:02.396Z,100931.09
2023-01-07T13:25:36.177Z,100919.59
2023-01-07T13:28:07.723Z,100915.63
2023-01-07T13:30:39.564Z,100910.56
2023-01-07T13:33:11.122Z,100908.09
2023-01-07T13:35:43.778Z,100905.00
2023-01-07T13:38:15.338Z,100912.09
2023-01-07T13:40:47.114Z,100902.28
2023-01-07T13:43:18.620Z,100892.84
2023-01-07T13:45:50.478Z,100899.78
2023-01-07T13:48:22.015Z,100902.72
2023-01-07T13:50:54.084Z,100897.28
2023-01-07T13:53:25.583Z,100893.59
2023-01-07T13:55:58.736Z,100894.19
2023-01-07T13:58:30.397Z,100880.88
2023-01-07T14:01:02.746Z,100890.41
2023-01-07T14:03:34.471Z,100879.75
2023-01-07T14:06:06.501Z,100879.09
2023-01-07T14:08:37.981Z,100877.28
2023-01-07T14:11:09.910Z,100880.66
2023-01-07T14:13:41.404Z,100877.84
2023-01-07T14:16:13.497Z,100871.69
2023-01-07T14:18:45.042Z,100873.41
2023-01-07T14:21:17.264Z,100873.84
2023-01-07T14:23:48.814Z,100872.06
2023-01-07T14:26:20.671Z,100867.66
2023-01-07T14:28:52.192Z,100871.00
2023-01-07T14:31:24.138Z,100857.66
2023-01-07T14:33:58.046Z,100862.63
2023-01-07T14:36:29.870Z,100864.63
2023-01-07T14:39:01.471Z,100867.41
2023-01-07T14:41:33.412Z,100853.75
2023-01-07T14:44:04.969Z,100867.94
2023-01-07T14:46:36.903Z,100853.81
2023-01-07T14:49:08.690Z,100852.22
2023-01-07T14:51:40.573Z,100850.00
2023-01-07T14:54:12.097Z,100842.88
2023-01-07T14:56:43.961Z,100849.66
2023-01-07T14:59:15.507Z,100847.19
2023-01-07T15:01:47.435Z,100843.13
2023-01-07T15:04:19.051Z,100850.94
2023-01-07T15:06:50.938Z,100846.25
2023-01-07T15:09:40.997Z,100851.38
2023-01-07T15:12:31.354Z,100844.63
2023-01-07T15:15:21.452Z,100847.72
2023-01-07T15:17:53.258Z,100846.69
2023-01-07T15:20:25.336Z,100857.97
2023-01-07T15:22:57.155Z,100856.94
2023-01-07T15:25:28.826Z,100849.97
2023-01-07T15:28:00.611Z,100858.56
2023-01-07T15:30:32.459Z,100850.78
2023-01-07T15:33:04.293Z,100849.16
2023-01-07T15:35:35.843Z,100850.59
2023-01-07T15:38:07.977Z,100852.47
2023-01-07T15:40:39.492Z,100842.66
2023-01-07T15:43:12.384Z,100844.50
2023-01-07T15:45:43.910Z,100844.50
2023-01-07T15:48:15.914Z,100845.53
2023-01-07T15:50:47.428Z,100851.88
2023-01-07T15:53:19.379Z,100848.78
2023-01-07T15:55:51.864Z,100852.03
2023-01-07T15:58:24.370Z,100844.06
2023-01-07T16:00:55.989Z,100844.72
2023-01-07T16:03:27.939Z,100849.22
2023-01-07T16:06:00.444Z,100841.84
2023-01-07T16:08:32.288Z,100834.47
2023-01-07T16:11:03.830Z,100834.47
2023-01-07T16:13:36.945Z,100840.63
2023-01-07T16:16:08.619Z,100830.78
2023-01-07T16:18:41.642Z,100832.63
2023-01-07T16:21:13.170Z,100828.75
2023-01-07T16:23:46.118Z,100831.81
2023-01-07T16:26:17.662Z,100831.59
2023-01-07T16:28:49.574Z,100827.91
2023-01-07T16:31:21.092Z,100821.78
2023-01-07T16:33:53.197Z,100814.81
2023-01-07T16:36:24.819Z,100817.47
2023-01-07T16:38:56.641Z,100815.84
2023-01-07T16:41:28.198Z,100811.34
2023-01-07T16:44:00.167Z,100811.97
2023-01-07T16:46:33.141Z,100813.19
2023-01-07T16:49:05.161Z,100812.38
2023-01-07T16:51:36.690Z,100805.81
2023-01-07T16:54:10.666Z,100805.81
2023-01-07T16:56:42.169Z,100800.91
2023-01-07T16:59:14.322Z,100803.56
2023-01-07T17:01:45.870Z,100799.69
2023-01-07T17:04:17.749Z,100795.56
2023-01-07T17:06:49.246Z,100789.41
2023-01-07T17:09:21.128Z,100785.75
2023-01-07T17:11:52.685Z,100779.19
2023-01-07T17:14:24.532Z,100782.47
2023-01-07T17:16:56.015Z,100777.97
2023-01-07T17:19:27.847Z,100769.16
2023-01-07T17:21:59.913Z,100766.28
2023-01-07T17:24:32.221Z,100760.13
2023-01-07T17:27:03.726Z,100759.50
2023-01-07T17:29:35.575Z,100754.41
2023-01-07T17:32:07.115Z,100755.44
2023-01-07T17:34:39.087Z,100750.09
2023-01-07T17:37:10.731Z,100527.19
2023-01-07T17:39:42.631Z,100752.34
2023-01-07T17:42:32.981Z,100749.69
2023-01-07T17:45:04.830Z,100749.47
2023-01-07T17:47:36.361Z,100738.22
2023-01-07T17:50:08.196Z,100745.38
2023-01-07T17:52:39.732Z,100744.78
2023-01-07T17:55:11.569Z,100737.41
2023-01-07T17:57:43.092Z,100735.78
2023-01-07T18:00:14.957Z,100737.63
2023-01-07T18:02:46.574Z,100735.16
2023-01-07T18:05:18.550Z,100741.50
2023-01-07T18:07:50.178Z,100733.50
2023-01-07T18:10:22.015Z,100734.97
2023-01-07T18:12:53.509Z,100731.47
2023-01-07T18:15:25.550Z,100719.81
2023-01-07T18:17:57.046Z,100724.53
2023-01-07T18:20:28.919Z,100726.34
2023-01-07T18:23:00.434Z,100720.22
2023-01-07T18:25:32.012Z,100721.88
2023-01-07T18:28:04.269Z,100707.53
2023-01-07T18:30:37.605Z,100700.59
2023-01-07T18:33:09.293Z,100701.78
2023-01-07T18:35:41.185Z,100704.44
2023-01-07T18:38:13.001Z,100698.75
2023-01-07T18:40:44.903Z,100695.91
2023-01-07T18:43:16.426Z,100690.78
2023-01-07T18:45:51.033Z,100699.59
2023-01-07T18:48:22.589Z,100699.00
2023-01-07T18:50:54.473Z,100691.00
2023-01-07T18:53:27.284Z,100696.13
2023-01-07T18:55:59.408Z,100691.19
2023-01-07T18:58:30.972Z,100694.06
2023-01-07T19:01:03.036Z,100685.25
2023-01-07T19:03:34.940Z,100678.09
2023-01-07T19:06:06.885Z,100674.84
2023-01-07T19:08:38.409Z,100667.00
2023-01-07T19:11:10.353Z,100666.25
2023-01-07T19:13:41.860Z,100658.88
2023-01-07T19:16:13.501Z,100651.94
2023-01-07T19:18:45.020Z,100661.75
2023-01-07T19:21:17.025Z,100649.09
2023-01-07T19:23:48.907Z,100650.28
2023-01-07T19:26:21.298Z,100648.44
2023-01-07T19:28:52.800Z,100639.25
2023-01-07T19:31:24.861Z,100636.19
2023-01-07T19:33:57.469Z,100635.19
2023-01-07T19:36:29.412Z,100626.38
2023-01-07T19:39:00.939Z,100637.63
2023-01-07T19:41:34.387Z,100629.44
2023-01-07T19:44:06.693Z,100624.13
2023-01-07T19:46:38.552Z,100625.97
2023-01-07T19:49:10.056Z,100618.84
2023-01-07T19:51:41.904Z,100623.97
2023-01-07T19:54:15.387Z,100616.78
2023-01-07T19:56:46.963Z,100612.91
2023-01-07T19:59:18.791Z,100616.81
2023-01-07T20:01:50.423Z,100616.81
2023-01-07T20:04:22.413Z,100618.88
2023-01-07T20:06:54.110Z,100616.00
2023-01-07T20:09:26.127Z,100610.28
2023-01-07T20:11:57.638Z,100608.25
2023-01-07T20:14:29.972Z,100597.81
2023-01-07T20:17:01.743Z,100593.09
2023-01-07T20:19:33.634Z,100599.03
2023-01-07T20:22:05.124Z,100590.66
2023-01-07T20:24:37.112Z,100588.38
2023-01-07T20:27:08.645Z,100591.03
2023-01-07T20:29:40.784Z,100587.34
2023-01-07T20:32:12.267Z,100583.31
2023-01-07T20:34:44.269Z,100589.63
2023-01-07T20:37:15.815Z,100587.41
2023-01-07T20:39:47.627Z,100582.06
2023-01-07T20:42:19.157Z,100575.94
2023-01-07T20:44:51.958Z,100580.66
2023-01-07T20:47:23.497Z,100573.28
2023-01-07T20:49:55.049Z,100566.94
2023-01-07T20:52:26.543Z,100568.56
2023-01-07T20:54:58.358Z,100548.94
2023-01-07T20:57:29.837Z,100548.75
2023-01-07T21:00:01.807Z,100546.09
2023-01-07T21:02:33.496Z,100552.22
2023-01-07T21:05:05.437Z,100548.31
2023-01-07T21:07:36.977Z,100549.94
2023-01-07T21:10:08.481Z,100548.72
2023-01-07T21:12:39.993Z,100547.91
2023-01-07T21:15:13.235Z,100543.59
2023-01-07T21:17:44.732Z,100536.22
2023-01-07T21:20:16.287Z,100528.47
2023-01-07T21:22:48.152Z,100523.38
2023-01-07T21:25:19.842Z,100526.63
2023-01-07T21:27:51.351Z,100518.44
2023-01-07T21:30:23.210Z,100515.38
2023-01-07T21:32:55.559Z,100508.81
2023-01-07T21:35:27.470Z,100507.41
2023-01-07T21:37:58.960Z,100506.75
2023-01-07T21:40:30.819Z,100512.09
2023-01-07T21:43:02.379Z,100506.16
2023-01-07T21:45:34.389Z,100504.75
2023-01-07T21:48:05.937Z,100497.38
2023-01-07T21:50:37.589Z,100501.44
2023-01-07T21:53:09.105Z,100499.38
2023-01-07T21:55:41.056Z,100497.38
2023-01-07T21:58:12.568Z,100500.69
2023-01-07T22:00:44.504Z,100502.31
2023-01-07T22:03:16.025Z,100500.09
2023-01-07T22:05:48.004Z,100494.53
2023-01-07T22:08:19.514Z,100496.56
2023-01-07T22:10:51.477Z,100500.25
2023-01-07T22:13:23.132Z,100496.56
2023-01-07T22:15:55.990Z,100488.81
2023-01-07T22:18:27.650Z,100480.25
2023-01-07T22:20:59.552Z,100473.50
2023-01-07T22:23:31.205Z,100478.44
2023-01-07T22:26:03.169Z,100470.03
2023-01-07T22:28:34.703Z,100472.53
2023-01-07T22:31:06.597Z,100466.41
2023-01-07T22:33:38.188Z,100459.72
2023-01-07T22:36:09.701Z,100451.47
2023-01-07T22:38:41.317Z,100457.22
2023-01-07T22:41:13.163Z,100452.50
2023-01-07T22:43:45.799Z,100452.94
2023-01-07T22:46:17.789Z,100455.38
2023-01-07T22:48:49.352Z,100449.06
2023-01-07T22:51:21.512Z,100450.91
2023-01-07T22:53:53.036Z,100451.19
2023-01-07T22:56:24.895Z,100451.81
2023-01-07T22:58:56.446Z,100445.50
2023-01-07T23:01:28.301Z,100441.19
2023-01-07T23:04:00.079Z,100437.50
2023-01-07T23:06:31.650Z,100434.28
2023-01-07T23:09:03.190Z,100433.69
2023-01-07T23:11:51.283Z,100440.47
2023-01-07T23:14:22.872Z,100433.31
2023-01-07T23:16:54.793Z,100444.97
2023-01-07T23:19:26.374Z,100430.47
2023-01-07T23:21:57.979Z,100429.88
2023-01-07T23:24:29.482Z,100428.25
2023-01-07T23:27:01.361Z,100422.13
2023-01-07T23:29:32.893Z,100424.22
2023-01-07T23:32:04.918Z,100419.72
2023-01-07T23:34:36.519Z,100419.13
2023-01-07T23:37:08.602Z,100413.81
2023-01-07T23:39:40.311Z,100412.41
2023-01-07T23:42:11.880Z,100406.72
2023-01-07T23:44:43.405Z,100402.63
2023-01-07T23:47:15.336Z,100395.69
2023-01-07T23:49:46.855Z,100387.56
2023-01-07T23:52:18.857Z,100383.28
2023-01-07T23:54:50.374Z,100384.69
2023-01-07T23:57:22.298Z,100396.75
2023-01-07T23:59:53.843Z,100381.47
